• Join FlightAware (Why Join?)
  • Login
  • US Flag 
01:12PM EDT


 

Airport Tracker/Info


-or-


 

Live Flight TrackerFlight Track Log ✈ TAM3400 ✈ 27-Jul-2014 ✈ SBBR / BSB - SBBE / BEL

Flight Track Log - Related Links

Times and Time Zones

All times are in EDT time to prevent confusion due to time zone crossing. See the TAM3400 flight status page for this flight to view local times or setup timezone preferences in your user account.

Time Position Orientation Groundspeed Altitude Reporting Facility
EDT Latitude Longitude Course Direction KTS MPH feet Rate Location/Type
09:57AM -15.5281 -47.9015 358° North  Level Estimated
09:58AM -15.4167 -47.9062 358° North  Level Estimated
09:59AM -15.3052 -47.9109 358° North  Level Estimated
10:00AM -15.1938 -47.9157 358° North  Level Estimated
10:01AM -15.0823 -47.9204 358° North  Level Estimated
10:02AM -14.9709 -47.9251 358° North  Level Estimated
10:03AM -14.8594 -47.9299 358° North  Level Estimated
10:04AM -14.7480 -47.9346 358° North  Level Estimated
10:05AM -14.6365 -47.9393 358° North  Level Estimated
10:06AM -14.5251 -47.9440 358° North  Level Estimated
10:07AM -14.4136 -47.9487 358° North  Level Estimated
10:08AM -14.3021 -47.9534 358° North  Level Estimated
10:09AM -14.1907 -47.9581 358° North  Level Estimated
10:10AM -14.0792 -47.9627 358° North  Level Estimated
10:11AM -13.9678 -47.9674 358° North  Level Estimated
10:12AM -13.8563 -47.9721 358° North  Level Estimated
10:13AM -13.7449 -47.9768 358° North  Level Estimated
10:14AM -13.6334 -47.9814 358° North  Level Estimated
10:15AM -13.5220 -47.9861 358° North  Level Estimated
10:16AM -13.4105 -47.9908 358° North  Level Estimated
10:17AM -13.2991 -47.9954 358° North  Level Estimated
10:18AM -13.1876 -48.0001 358° North  Level Estimated
10:19AM -13.0761 -48.0047 358° North  Level Estimated
10:20AM -12.9647 -48.0094 358° North  Level Estimated
10:21AM -12.8532 -48.0140 358° North  Level Estimated
10:22AM -12.7418 -48.0186 358° North  Level Estimated
10:23AM -12.6303 -48.0233 358° North  Level Estimated
10:24AM -12.5189 -48.0279 358° North  Level Estimated
10:25AM -12.4074 -48.0325 358° North  Level Estimated
10:26AM -12.2960 -48.0371 358° North  Level Estimated
10:27AM -12.1845 -48.0417 358° North  Level Estimated
10:28AM -12.0730 -48.0463 358° North  Level Estimated
10:29AM -11.9616 -48.0509 358° North  Level Estimated
10:30AM -11.8501 -48.0556 358° North  Level Estimated
10:31AM -11.7387 -48.0602 358° North  Level Estimated
10:32AM -11.6272 -48.0648 358° North  Level Estimated
10:33AM -11.5158 -48.0693 358° North  Level Estimated
10:34AM -11.4043 -48.0739 358° North  Level Estimated
10:35AM -11.2929 -48.0785 358° North  Level Estimated
10:36AM -11.1814 -48.0831 358° North  Level Estimated
10:37AM -11.0700 -48.0877 358° North  Level Estimated
10:38AM -10.9585 -48.0922 358° North  Level Estimated
10:39AM -10.8470 -48.0968 358° North  Level Estimated
10:40AM -10.7356 -48.1014 358° North  Level Estimated
10:41AM -10.6241 -48.1059 358° North  Level Estimated
10:42AM -10.5127 -48.1105 358° North  Level Estimated
10:43AM -10.4012 -48.1151 358° North  Level Estimated
10:44AM -10.2898 -48.1196 358° North  Level Estimated
10:45AM -10.1783 -48.1242 358° North  Level Estimated
10:46AM -10.0668 -48.1287 358° North  Level Estimated
10:47AM -9.9554 -48.1333 358° North  Level Estimated
10:48AM -9.8439 -48.1378 358° North  Level Estimated
10:49AM -9.7325 -48.1423 358° North  Level Estimated
10:50AM -9.6325 -48.1464 358° North  Level Estimated
10:51AM -9.5326 -48.1505 358° North  Level Estimated
10:52AM -9.4327 -48.1545 358° North  Level Estimated
10:53AM -9.3328 -48.1586 358° North  Level Estimated
10:54AM -9.2328 -48.1626 358° North  Level Estimated
10:55AM -9.1329 -48.1667 358° North  Level Estimated
10:56AM -9.0330 -48.1707 358° North  Level Estimated
10:56AM -8.5478 -48.3823 North 477 549 36,000  Level FlightAware ADS-B (SBIZ / IMP)
10:56AM -8.5043 -48.3828 North 477 549 36,000  Level FlightAware ADS-B (SBIZ / IMP)
10:56AM -8.4922 -48.3829 North 477 549 36,000  Level FlightAware ADS-B (SBIZ / IMP)
10:58AM -8.3037 -48.3855 North 478 550 36,000  Level FlightAware ADS-B (SBIZ / IMP)
10:58AM -8.2524 -48.3863 North 478 550 36,000  Level FlightAware ADS-B (SBIZ / IMP)
10:58AM -8.2288 -48.3865 North 478 550 36,000  Level FlightAware ADS-B (SBIZ / IMP)
10:59AM -8.1137 -48.3881 North 478 550 36,000  Level FlightAware ADS-B (SBIZ / IMP)
11:01AM -7.8795 -48.3912 North 477 549 36,000  Level FlightAware ADS-B (SBIZ / IMP)
11:01AM -7.8338 -48.3919 North 477 549 36,000  Level FlightAware ADS-B (SBIZ / IMP)
11:02AM -7.7410 -48.3933 North 476 548 36,000  Level FlightAware ADS-B (SBIZ / IMP)
11:02AM -7.6750 -48.3942 North 476 548 36,000  Level FlightAware ADS-B (SBIZ / IMP)
11:03AM -7.6221 -48.3949 North 476 548 36,000  Level FlightAware ADS-B (SBIZ / IMP)
11:03AM -7.5467 -48.3959 North 476 548 36,000  Level FlightAware ADS-B (SBIZ / IMP)
11:04AM -7.4764 -48.3969 North 477 549 36,000  Level FlightAware ADS-B (SBIZ / IMP)
11:04AM -7.4210 -48.3976 North 477 549 36,000  Level FlightAware ADS-B (SBIZ / IMP)
11:05AM -7.3416 -48.3987 North 476 548 36,000  Level FlightAware ADS-B (SBIZ / IMP)
11:05AM -7.2968 -48.3993 North 477 549 36,000  Level FlightAware ADS-B (SBIZ / IMP)
11:06AM -7.2084 -48.4005 North 478 550 36,000  Level FlightAware ADS-B (SBIZ / IMP)
11:06AM -7.1477 -48.4014 North 478 550 36,000  Level FlightAware ADS-B (SBIZ / IMP)
11:07AM -7.0842 -48.4023 North 479 551 36,000  Level FlightAware ADS-B (SBIZ / IMP)
11:07AM -7.0058 -48.4033 North 479 551 36,000  Level FlightAware ADS-B (SBIZ / IMP)
11:08AM -6.9573 -48.4039 North 480 552 36,000  Level FlightAware ADS-B (SBIZ / IMP)
11:08AM -6.8727 -48.4051 North 480 552 36,000  Level FlightAware ADS-B (SBIZ / IMP)
11:09AM -6.8141 -48.4059 North 480 552 36,000  Level FlightAware ADS-B (SBIZ / IMP)
11:09AM -6.7408 -48.4069 North 481 554 36,000  Level FlightAware ADS-B (SBIZ / IMP)
11:10AM -6.6851 -48.4076 North 481 554 36,000  Level FlightAware ADS-B (SBIZ / IMP)
11:10AM -6.6119 -48.4086 North 482 555 36,000  Level FlightAware ADS-B (SBIZ / IMP)
11:11AM -6.5464 -48.4095 North 482 555 36,000  Level FlightAware ADS-B (SBIZ / IMP)
11:11AM -6.4791 -48.4105 North 482 555 36,000  Level FlightAware ADS-B (SBIZ / IMP)
11:12AM -6.4019 -48.4115 North 482 555 36,000  Level FlightAware ADS-B (SBIZ / IMP)
11:12AM -6.3615 -48.4121 North 482 555 36,000  Level FlightAware ADS-B (SBIZ / IMP)
11:13AM -6.3028 -48.4129 North 482 555 36,000  Level FlightAware ADS-B (SBIZ / IMP)
11:13AM -6.2136 -48.4141 North 482 555 36,000  Level FlightAware ADS-B (SBIZ / IMP)
11:14AM -6.1392 -48.4150 North 482 555 36,000  Level FlightAware ADS-B (SBIZ / IMP)
11:14AM -6.0660 -48.4160 North 482 555 36,000  Level FlightAware ADS-B (SBIZ / IMP)
11:15AM -6.0163 -48.4166 North 483 556 36,000  Level FlightAware ADS-B (SBIZ / IMP)
11:15AM -5.9665 -48.4174 North 484 557 36,000  Level FlightAware ADS-B (SBIZ / IMP)
11:16AM -5.8812 -48.4184 North 484 557 36,000  Level FlightAware ADS-B (SBIZ / IMP)
11:16AM -5.8133 -48.4193 North 484 557 36,000  Level FlightAware ADS-B (SBIZ / IMP)
11:17AM -5.7586 -48.4200 North 483 556 36,000  Level FlightAware ADS-B (SBIZ / IMP)
11:17AM -5.6772 -48.4211 North 483 556 36,000  Level FlightAware ADS-B (SBIZ / IMP)
11:18AM -5.6092 -48.4221 North 483 556 36,000  Level FlightAware ADS-B (SBIZ / IMP)
11:18AM -5.5299 -48.4232 North 484 557 36,000  Level FlightAware ADS-B (SBIZ / IMP)
11:19AM -5.4792 -48.4238 North 484 557 36,000  Level FlightAware ADS-B (SBIZ / IMP)
11:19AM -5.4118 -48.4247 North 484 557 36,000  Level FlightAware ADS-B (SBIZ / IMP)
11:20AM -5.3395 -48.4257 North 484 557 36,000  Level FlightAware ADS-B (SBIZ / IMP)
11:20AM -5.2742 -48.4267 North 484 557 36,000  Level FlightAware ADS-B (SBIZ / IMP)
11:21AM -5.1903 -48.4278 North 484 557 36,000  Level FlightAware ADS-B (SBIZ / IMP)
11:21AM -5.1336 -48.4286 North 483 556 36,000  Level FlightAware ADS-B (SBIZ / IMP)
11:22AM -5.0698 -48.4294 North 484 557 36,000  Level FlightAware ADS-B (SBIZ / IMP)
11:22AM -4.9935 -48.4304 North 483 556 36,000  Level FlightAware ADS-B (SBIZ / IMP)
11:23AM -4.9285 -48.4312 North 482 555 36,000  Level FlightAware ADS-B (SBIZ / IMP)
11:23AM -4.8614 -48.4321 North 480 552 36,000  Level FlightAware ADS-B (SBIZ / IMP)
11:24AM -4.7882 -48.4331 North 480 552 36,000  Level FlightAware ADS-B (SBIZ / IMP)
11:24AM -4.7302 -48.4339 North 479 551 36,000  Level FlightAware ADS-B (SBIZ / IMP)
11:25AM -4.6589 -48.4349 North 478 550 36,000  Level FlightAware ADS-B (SBIZ / IMP)
11:25AM -4.5938 -48.4357 North 478 550 36,000  Level FlightAware ADS-B (SBIZ / IMP)
11:26AM -4.5335 -48.4366 North 478 550 36,000  Level FlightAware ADS-B (SBIZ / IMP)
11:26AM -4.4524 -48.4377 North 477 549 36,000  Level FlightAware ADS-B (SBIZ / IMP)
11:27AM -4.3940 -48.4385 North 477 549 36,000  Level FlightAware ADS-B (SBIZ / IMP)
11:27AM -4.3347 -48.4393 North 476 548 36,000  Level FlightAware ADS-B (SBIZ / IMP)
11:28AM -4.2615 -48.4403 North 475 547 36,000  Level FlightAware ADS-B (SBIZ / IMP)
11:28AM -4.1952 -48.4411 North 475 547 36,000  Level FlightAware ADS-B (SBIZ / IMP)
11:29AM -4.1404 -48.4418 North 474 545 36,000  Level FlightAware ADS-B (SBIZ / IMP)
11:29AM -4.0672 -48.4428 North 474 545 36,000  Level FlightAware ADS-B (SBIZ / IMP)
11:30AM -4.0022 -48.4437 North 475 547 36,000  Level FlightAware ADS-B (SBIZ / IMP)
11:30AM -3.9327 -48.4446 North 475 547 36,000  Level FlightAware ADS-B (SBIZ / IMP)
11:31AM -3.8628 -48.4454 North 475 547 36,000  Level FlightAware ADS-B (SBIZ / IMP)
11:31AM -3.7946 -48.4464 North 476 548 36,000  Level FlightAware ADS-B (SBIZ / IMP)
11:32AM -3.7314 -48.4472 North 475 547 36,000  Level FlightAware ADS-B (SBIZ / IMP)
11:32AM -3.6605 -48.4482 359° North 474 545 36,000  Level FlightAware ADS-B (SBIZ / IMP)
11:33AM -3.5459 -48.4551 357° North 473 544 36,000  Level FlightAware ADS-B (SBIZ / IMP)
11:34AM -3.4771 -48.4593 357° North 472 543 36,000 -240 Level FlightAware ADS-B (SBIZ / IMP)
11:34AM -3.4153 -48.4628 357° North 475 547 35,800 -1,560 Descending FlightAware ADS-B (SBIZ / IMP)
11:35AM -3.3529 -48.4661 357° North 478 550 34,600 -3,000 Descending FlightAware ADS-B (SBIZ / IMP)
11:35AM -3.2890 -48.4696 357° North 485 558 33,000 -3,480 Descending FlightAware ADS-B (SBIZ / IMP)
11:36AM -3.2096 -48.4740 357° North 493 567 31,000 -3,420 Descending FlightAware ADS-B (SBIZ / IMP)
11:36AM -3.1542 -48.4771 357° North 494 568 29,600 -2,940 Descending FlightAware ADS-B (SBIZ / IMP)
11:37AM -3.0723 -48.4815 357° North 482 555 28,100 -2,640 Descending FlightAware ADS-B (SBIZ / IMP)
11:37AM -3.0057 -48.4852 357° North 474 545 26,800 -3,540 Descending FlightAware ADS-B (SBIZ / IMP)
11:38AM -2.9398 -48.4889 357° North 485 558 24,600 -2,820 Descending FlightAware ADS-B (SBIZ / IMP)
11:40AM -2.5881 -48.5084 357° North 447 514 17,700 -2,640 Descending FlightAware ADS-B
11:41AM -2.5298 -48.5116 357° North 442 509 16,300 -2,340 Descending FlightAware ADS-B
11:41AM -2.4689 -48.5151 357° North 421 484 15,400 -1,740 Descending FlightAware ADS-B
11:42AM -2.4130 -48.5181 357° North 401 461 14,600 -2,280 Descending FlightAware ADS-B
11:42AM -2.3547 -48.5212 357° North 400 460 13,200 -2,640 Descending FlightAware ADS-B
11:43AM -2.3040 -48.5242 357° North 395 455 12,100 -2,040 Descending FlightAware ADS-B
11:43AM -2.2550 -48.5270 357° North 379 436 11,300 -1,380 Descending FlightAware ADS-B
11:44AM -2.2032 -48.5300 357° North 357 411 10,800 -960 Descending FlightAware ADS-B
11:44AM -2.1558 -48.5323 358° North 334 384 10,400 -660 Descending FlightAware ADS-B
11:45AM -2.1001 -48.5354 357° North 313 360 10,100 -540 Descending FlightAware ADS-B
11:45AM -2.0702 -48.5371 357° North 307 353 9,900 -540 Descending FlightAware ADS-B
11:46AM -2.0478 -48.5384 357° North 305 351 9,800 -420 Descending FlightAware ADS-B
11:46AM -2.0263 -48.5395 357° North 305 351 9,700 -420 Descending FlightAware ADS-B
11:46AM -2.0046 -48.5407 357° North 301 346 9,600 -600 Descending FlightAware ADS-B
11:46AM -1.9828 -48.5418 357° North 299 344 9,400 -660 Descending FlightAware ADS-B
11:47AM -1.9639 -48.5429 357° North 298 343 9,300 -480 Descending FlightAware ADS-B
11:47AM -1.9438 -48.5439 357° North 298 343 9,200 -900 Descending FlightAware ADS-B
11:47AM -1.9258 -48.5448 357° North 300 345 8,900 -1,320 Descending FlightAware ADS-B
11:47AM -1.9017 -48.5461 357° North 298 343 8,500 -1,500 Descending FlightAware ADS-B
11:48AM -1.8821 -48.5472 357° North 296 341 8,100 -1,560 Descending FlightAware ADS-B
11:48AM -1.8523 -48.5488 357° North 292 336 7,600 -1,500 Descending FlightAware ADS-B
11:48AM -1.8320 -48.5500 357° North 291 335 7,200 -1,680 Descending FlightAware ADS-B
11:48AM -1.8123 -48.5510 358° North 289 333 6,800 -2,040 Descending FlightAware ADS-B
11:49AM -1.7918 -48.5520 358° North 290 334 6,200 -2,400 Descending FlightAware ADS-B
11:49AM -1.7721 -48.5531 357° North 289 333 5,600 -2,460 Descending FlightAware ADS-B
11:49AM -1.7481 -48.5569 349° North 289 333 4,900 -2,220 Descending FlightAware ADS-B
11:49AM -1.7292 -48.5607 349° North 286 329 4,400 -1,740 Descending FlightAware ADS-B
11:50AM -1.7038 -48.5658 349° North 280 322 3,900 -1,620 Descending FlightAware ADS-B
11:50AM -1.6776 -48.5711 349° North 281 323 3,300 -1,320 Descending FlightAware ADS-B
11:50AM -1.6505 -48.5763 350° North 272 313 3,000 -840 Descending FlightAware ADS-B
11:51AM -1.6304 -48.5802 349° North 276 318 2,800 -600 Descending FlightAware ADS-B
11:51AM -1.6098 -48.5840 350° North 274 315 2,700 -420 Descending FlightAware ADS-B
11:51AM -1.5919 -48.5874 350° North 273 314 2,600 -420 Descending FlightAware ADS-B
11:51AM -1.5746 -48.5907 350° North 272 313 2,500 -600 Descending FlightAware ADS-B
11:52AM -1.5554 -48.5943 350° North 272 313 2,300 -720 Descending FlightAware ADS-B
11:52AM -1.5396 -48.5960 359° North 271 312 2,200 -360 Descending FlightAware ADS-B
11:52AM -1.5338 -48.5954 North 269 310 2,200 -600 Level FlightAware ADS-B
11:52AM -1.5266 -48.5934 19° North 266 306 2,100 -540 Descending FlightAware ADS-B
11:52AM -1.5202 -48.5902 27° Northeast 264 304 2,100 -480 Level FlightAware ADS-B
11:52AM -1.5129 -48.5856 32° Northeast 258 297 2,000 -300 Descending FlightAware ADS-B
11:53AM -1.4977 -48.5771 27° Northeast 241 277 2,000  Level FlightAware ADS-B
11:53AM -1.4809 -48.5679 30° Northeast 221 254 2,000  Level FlightAware ADS-B
11:53AM -1.4686 -48.5601 33° Northeast 205 236 2,000 180 Level FlightAware ADS-B
11:53AM -1.4566 -48.5520 35° Northeast 175 201 2,100 -360 Climbing FlightAware ADS-B
11:54AM -1.4465 -48.5436 41° Northeast 161 185 1,800 -960 Descending FlightAware ADS-B
11:54AM -1.4379 -48.5353 45° Northeast 147 169 1,600 -960 Descending FlightAware ADS-B
11:54AM -1.4302 -48.5274 46° Northeast 144 166 1,300 -840 Descending FlightAware ADS-B
11:55AM -1.4213 -48.5183 44° Northeast 140 161 1,100 -720 Descending FlightAware ADS-B
11:55AM -1.4133 -48.5104 44° Northeast 141 162 900 -900 Descending FlightAware ADS-B
11:55AM -1.4053 -48.5023 45° Northeast 143 165 600 -1,080 Descending FlightAware ADS-B
11:55AM -1.3972 -48.4942 45° Northeast 143 165 300 -900 Descending FlightAware ADS-B
11:56AM -1.3900 -48.4870 45° Northeast 140 161 100 -720 Descending FlightAware ADS-B